createdAt,value
2018-12-12T00:01:25.164Z,95414.60
2018-12-12T00:03:53.539Z,95413.92
2018-12-12T00:06:21.775Z,95412.71
2018-12-12T00:08:50.056Z,95410.49
2018-12-12T00:11:18.505Z,95406.89
2018-12-12T00:13:46.753Z,95408.06
2018-12-12T00:16:15.122Z,95405.19
2018-12-12T00:18:43.378Z,95400.81
2018-12-12T00:21:11.620Z,95400.84
2018-12-12T00:23:39.918Z,95409.56
2018-12-12T00:26:08.472Z,95408.09
2018-12-12T00:28:36.707Z,95412.28
2018-12-12T00:31:04.987Z,95417.44
2018-12-12T00:33:33.243Z,95420.87
2018-12-12T00:36:01.500Z,95421.31
2018-12-12T00:38:29.751Z,95420.63
2018-12-12T00:40:58.019Z,95421.83
2018-12-12T00:43:26.274Z,95423.00
2018-12-12T00:45:54.519Z,95423.41
2018-12-12T00:48:22.776Z,95407.61
2018-12-12T00:50:51.023Z,95410.50
2018-12-12T00:53:19.314Z,95416.55
2018-12-12T00:55:47.609Z,95415.89
2018-12-12T00:58:15.889Z,95414.78
2018-12-12T01:00:44.131Z,95422.84
2018-12-12T01:03:12.458Z,95420.22
2018-12-12T01:08:18.878Z,95420.02
2018-12-12T01:10:49.092Z,95423.95
2018-12-12T01:13:17.352Z,95427.39
2018-12-12T01:15:45.618Z,95428.11
2018-12-12T01:18:13.867Z,95419.75
2018-12-12T01:20:42.143Z,95410.59
2018-12-12T01:23:10.405Z,95416.86
2018-12-12T01:25:38.660Z,95421.92
2018-12-12T01:28:06.937Z,95430.90
2018-12-12T01:30:35.200Z,95425.24
2018-12-12T01:33:03.451Z,95424.88
2018-12-12T01:35:31.745Z,95425.84
2018-12-12T01:38:00.017Z,95422.84
2018-12-12T01:40:28.268Z,95430.47
2018-12-12T01:42:56.575Z,95428.25
2018-12-12T01:45:24.845Z,95426.42
2018-12-12T01:47:53.159Z,95424.84
2018-12-12T01:50:21.412Z,95422.61
2018-12-12T01:52:49.656Z,95417.84
2018-12-12T01:55:17.941Z,95420.63
2018-12-12T01:57:46.197Z,95426.59
2018-12-12T02:00:14.556Z,95425.27
2018-12-12T02:02:42.813Z,95424.23
2018-12-12T02:05:11.084Z,95437.26
2018-12-12T02:07:39.385Z,95442.09
2018-12-12T02:10:07.899Z,95443.07
2018-12-12T02:12:37.397Z,95437.08
2018-12-12T02:15:05.828Z,95431.58
2018-12-12T02:17:34.118Z,95439.00
2018-12-12T02:20:02.368Z,95436.80
2018-12-12T02:22:30.622Z,95435.25
2018-12-12T02:24:58.888Z,95428.50
2018-12-12T02:27:27.168Z,95427.45
2018-12-12T02:29:55.501Z,95421.16
2018-12-12T02:32:24.028Z,95422.14
2018-12-12T02:34:52.293Z,95432.23
2018-12-12T02:37:20.550Z,95435.41
2018-12-12T02:39:48.849Z,95436.91
2018-12-12T02:42:17.130Z,95432.70
2018-12-12T02:44:45.382Z,95430.43
2018-12-12T02:47:13.660Z,95429.79
2018-12-12T02:49:41.911Z,95432.63
2018-12-12T02:52:10.194Z,95434.64
2018-12-12T02:54:38.538Z,95425.95
2018-12-12T02:57:06.843Z,95420.77
2018-12-12T02:59:35.098Z,95427.28
2018-12-12T03:02:03.356Z,95424.88
2018-12-12T03:04:31.631Z,95424.31
2018-12-12T03:06:59.919Z,95421.91
2018-12-12T03:09:28.232Z,95423.63
2018-12-12T03:11:56.529Z,95410.13
2018-12-12T03:14:25.079Z,95414.92
2018-12-12T03:16:53.377Z,95417.10
2018-12-12T03:19:21.633Z,95416.92
2018-12-12T03:21:49.902Z,95411.08
2018-12-12T03:24:19.375Z,95408.58
2018-12-12T03:26:47.639Z,95406.03
2018-12-12T03:29:15.893Z,95412.51
2018-12-12T03:31:44.204Z,95414.43
2018-12-12T03:34:12.511Z,95417.24
2018-12-12T03:36:40.831Z,95417.39
2018-12-12T03:39:09.134Z,95413.69
2018-12-12T03:41:37.431Z,95413.14
2018-12-12T03:44:05.685Z,95409.70
2018-12-12T03:46:33.928Z,95409.44
2018-12-12T03:49:02.222Z,95411.70
2018-12-12T03:51:30.469Z,95399.64
2018-12-12T03:53:58.720Z,95399.63
2018-12-12T03:56:26.999Z,95403.56
2018-12-12T03:58:55.488Z,95402.78
2018-12-12T04:01:23.746Z,95401.20
2018-12-12T04:03:51.988Z,95399.86
2018-12-12T04:06:20.256Z,95398.66
2018-12-12T04:08:48.543Z,95384.92
2018-12-12T04:11:16.827Z,95399.23
2018-12-12T04:13:45.073Z,95395.27
2018-12-12T04:16:13.670Z,95392.63
2018-12-12T04:18:41.927Z,95395.16
2018-12-12T04:21:10.214Z,95383.86
2018-12-12T04:23:38.460Z,95384.87
2018-12-12T04:26:06.735Z,95383.00
2018-12-12T04:28:34.991Z,95369.30
2018-12-12T04:31:03.243Z,95387.84
2018-12-12T04:33:31.497Z,95390.60
2018-12-12T04:35:59.788Z,95377.59
2018-12-12T04:38:28.093Z,95388.63
2018-12-12T04:40:56.342Z,95385.31
2018-12-12T04:43:24.587Z,95363.22
2018-12-12T04:45:53.542Z,95377.72
2018-12-12T04:48:21.813Z,95375.24
2018-12-12T04:50:50.096Z,95377.96
2018-12-12T04:53:18.369Z,95379.42
2018-12-12T04:55:46.627Z,95377.13
2018-12-12T04:58:14.910Z,95379.62
2018-12-12T05:00:43.217Z,95391.60
2018-12-12T05:03:11.469Z,95393.55
2018-12-12T05:05:39.724Z,95400.20
2018-12-12T05:08:08.056Z,95394.60
2018-12-12T05:10:36.329Z,95396.99
2018-12-12T05:13:04.565Z,95393.92
2018-12-12T05:15:32.836Z,95396.39
2018-12-12T05:18:01.122Z,95398.37
2018-12-12T05:20:29.405Z,95404.13
2018-12-12T05:22:57.727Z,95399.23
2018-12-12T05:25:26.027Z,95401.66
2018-12-12T05:27:54.284Z,95389.94
2018-12-12T05:30:22.536Z,95394.75
2018-12-12T05:32:50.820Z,95408.17
2018-12-12T05:35:19.152Z,95410.95
2018-12-12T05:37:51.044Z,95414.77
2018-12-12T05:40:18.285Z,95414.42
2018-12-12T05:42:46.733Z,95415.20
2018-12-12T05:45:15.030Z,95416.09
2018-12-12T05:47:44.314Z,95422.05
2018-12-12T05:50:12.713Z,95414.65
2018-12-12T05:52:40.961Z,95417.91
2018-12-12T05:55:09.219Z,95414.78
2018-12-12T05:57:37.522Z,95414.56
2018-12-12T06:00:07.273Z,95415.22
2018-12-12T06:02:35.537Z,95416.89
2018-12-12T06:05:04.053Z,95413.83
2018-12-12T06:07:32.331Z,95414.48
2018-12-12T06:10:00.630Z,95407.48
2018-12-12T06:12:28.896Z,95418.23
2018-12-12T06:14:57.186Z,95418.30
2018-12-12T06:17:25.473Z,95421.47
2018-12-12T06:19:54.044Z,95416.20
2018-12-12T06:22:22.517Z,95421.92
2018-12-12T06:24:50.872Z,95410.10
2018-12-12T06:27:19.159Z,95419.83
2018-12-12T06:29:47.420Z,95426.61
2018-12-12T06:32:15.727Z,95419.08
2018-12-12T06:34:43.994Z,95416.69
2018-12-12T06:37:12.272Z,95420.59
2018-12-12T06:39:40.532Z,95422.63
2018-12-12T06:42:08.783Z,95421.36
2018-12-12T06:44:37.146Z,95422.56
2018-12-12T06:47:05.421Z,95430.45
2018-12-12T06:49:33.693Z,95434.16
2018-12-12T06:52:01.945Z,95434.81
2018-12-12T06:54:30.201Z,95438.89
2018-12-12T06:56:58.463Z,95438.96
2018-12-12T06:59:26.764Z,95434.17
2018-12-12T07:01:55.003Z,95429.34
2018-12-12T07:04:23.288Z,95427.35
2018-12-12T07:06:51.551Z,95434.91
2018-12-12T07:09:19.852Z,95432.61
2018-12-12T07:11:48.138Z,95436.54
2018-12-12T07:14:16.399Z,95435.48
2018-12-12T07:16:44.684Z,95438.69
2018-12-12T07:19:13.266Z,95441.98
2018-12-12T07:21:41.665Z,95440.67
2018-12-12T07:24:10.045Z,95436.80
2018-12-12T07:26:38.318Z,95441.27
2018-12-12T07:29:06.584Z,95439.84
2018-12-12T07:31:34.851Z,95446.75
2018-12-12T07:34:03.486Z,95445.87
2018-12-12T07:36:31.744Z,95448.38
2018-12-12T07:39:00.010Z,95444.70
2018-12-12T07:41:28.551Z,95451.77
2018-12-12T07:43:56.804Z,95453.59
2018-12-12T07:46:25.431Z,95454.69
2018-12-12T07:48:53.683Z,95459.86
2018-12-12T07:51:21.988Z,95456.76
2018-12-12T07:53:50.264Z,95460.70
2018-12-12T07:56:18.853Z,95456.94
2018-12-12T07:58:47.113Z,95458.69
2018-12-12T08:01:15.379Z,95460.16
2018-12-12T08:03:43.667Z,95458.55
2018-12-12T08:06:11.931Z,95459.08
2018-12-12T08:08:40.190Z,95449.66
2018-12-12T08:11:08.464Z,95459.56
2018-12-12T08:13:36.759Z,95458.87
2018-12-12T08:16:05.220Z,95450.81
2018-12-12T08:18:33.487Z,95452.49
2018-12-12T08:21:02.316Z,95450.93
2018-12-12T08:26:09.972Z,95457.02
2018-12-12T08:28:38.284Z,95445.26
2018-12-12T08:31:06.551Z,95450.48
2018-12-12T08:33:34.828Z,95452.61
2018-12-12T08:36:03.096Z,95458.76
2018-12-12T08:38:31.375Z,95456.67
2018-12-12T08:40:59.652Z,95444.11
2018-12-12T08:43:27.926Z,95449.30
2018-12-12T08:45:56.226Z,95455.98
2018-12-12T08:48:24.483Z,95453.20
2018-12-12T08:50:52.754Z,95457.00
2018-12-12T08:53:21.018Z,95452.09
2018-12-12T08:55:49.340Z,95452.61
2018-12-12T08:58:17.624Z,95457.78
2018-12-12T09:00:45.883Z,95459.39
2018-12-12T09:03:17.556Z,95456.17
2018-12-12T09:05:44.428Z,95459.19
2018-12-12T09:08:12.712Z,95462.81
2018-12-12T09:10:40.975Z,95462.57
2018-12-12T09:13:09.299Z,95460.19
2018-12-12T09:15:37.573Z,95455.56
2018-12-12T09:18:05.860Z,95452.03
2018-12-12T09:20:34.120Z,95461.53
2018-12-12T09:23:02.401Z,95460.19
2018-12-12T09:25:30.671Z,95456.94
2018-12-12T09:27:58.924Z,95464.86
2018-12-12T09:30:27.168Z,95455.27
2018-12-12T09:32:55.427Z,95453.23
2018-12-12T09:35:23.679Z,95456.31
2018-12-12T09:37:51.939Z,95458.61
2018-12-12T09:40:20.200Z,95452.47
2018-12-12T09:42:48.451Z,95457.77
2018-12-12T09:45:21.681Z,95452.78
2018-12-12T09:47:47.048Z,95446.16
2018-12-12T09:50:15.563Z,95452.66
2018-12-12T09:52:46.700Z,95447.10
2018-12-12T09:55:14.992Z,95450.93
2018-12-12T09:57:43.297Z,95451.64
2018-12-12T10:00:11.589Z,95445.75
2018-12-12T10:02:39.904Z,95448.02
2018-12-12T10:05:08.490Z,95443.78
2018-12-12T10:07:36.742Z,95441.16
2018-12-12T10:10:05.387Z,95434.64
2018-12-12T10:12:33.649Z,95435.49
2018-12-12T10:15:01.908Z,95434.91
2018-12-12T10:17:30.212Z,95428.37
2018-12-12T10:19:58.511Z,95431.56
2018-12-12T10:22:26.846Z,95434.44
2018-12-12T10:24:55.156Z,95435.45
2018-12-12T10:27:23.408Z,95424.23
2018-12-12T10:29:51.695Z,95426.98
2018-12-12T10:34:58.082Z,95423.46
2018-12-12T10:37:26.376Z,95429.36
2018-12-12T10:39:54.643Z,95424.09
2018-12-12T10:42:23.069Z,95427.45
2018-12-12T10:44:51.310Z,95423.36
2018-12-12T10:47:19.569Z,95417.80
2018-12-12T10:49:47.821Z,95409.48
2018-12-12T10:52:16.088Z,95411.45
2018-12-12T10:54:44.365Z,95412.02
2018-12-12T10:57:12.678Z,95408.45
2018-12-12T10:59:40.986Z,95406.84
2018-12-12T11:02:14.517Z,95409.69
2018-12-12T11:04:42.821Z,95403.11
2018-12-12T11:07:11.095Z,95402.77
2018-12-12T11:09:39.402Z,95402.19
2018-12-12T11:12:07.682Z,95403.57
2018-12-12T11:14:35.920Z,95405.78
2018-12-12T11:17:04.275Z,95409.94
2018-12-12T11:19:32.520Z,95403.56
2018-12-12T11:22:00.925Z,95403.77
2018-12-12T11:24:29.233Z,95399.25
2018-12-12T11:26:57.556Z,95395.78
2018-12-12T11:29:25.823Z,95396.13
2018-12-12T11:31:54.163Z,95395.11
2018-12-12T11:34:22.408Z,95396.41
2018-12-12T11:36:50.742Z,95394.27
2018-12-12T11:39:18.992Z,95396.80
2018-12-12T11:41:47.247Z,95397.31
2018-12-12T11:44:15.495Z,95393.88
2018-12-12T11:46:44.120Z,95387.59
2018-12-12T11:49:12.452Z,95386.83
2018-12-12T11:51:40.695Z,95384.75
2018-12-12T11:54:08.959Z,95383.73
2018-12-12T11:56:37.236Z,95371.52
2018-12-12T11:59:05.484Z,95382.23
2018-12-12T12:01:33.747Z,95365.78
2018-12-12T12:04:02.017Z,95374.98
2018-12-12T12:06:30.353Z,95375.22
2018-12-12T12:08:58.723Z,95374.23
2018-12-12T12:11:26.969Z,95362.95
2018-12-12T12:13:55.227Z,95368.93
2018-12-12T12:16:24.749Z,95369.67
2018-12-12T12:18:53.021Z,95368.97
2018-12-12T12:21:21.597Z,95367.23
2018-12-12T12:23:49.850Z,95364.14
2018-12-12T12:26:18.343Z,95364.02
2018-12-12T12:28:46.637Z,95364.70
2018-12-12T12:31:14.909Z,95360.81
2018-12-12T12:33:43.280Z,95356.64
2018-12-12T12:36:11.536Z,95349.77
2018-12-12T12:38:39.795Z,95354.74
2018-12-12T12:41:08.059Z,95346.66
2018-12-12T12:43:36.325Z,95341.72
2018-12-12T12:46:04.595Z,95331.84
2018-12-12T12:48:32.860Z,95335.92
2018-12-12T12:51:01.120Z,95341.47
2018-12-12T12:53:29.416Z,95340.41
2018-12-12T12:55:57.681Z,95330.33
2018-12-12T12:58:25.968Z,95329.91
2018-12-12T13:00:54.231Z,95334.88
2018-12-12T13:03:22.488Z,95333.94
2018-12-12T13:05:50.855Z,95329.81
2018-12-12T13:08:19.122Z,95321.61
2018-12-12T13:10:47.571Z,95319.40
2018-12-12T13:13:16.268Z,95316.07
2018-12-12T13:15:45.057Z,95316.05
2018-12-12T13:18:14.639Z,95316.23
2018-12-12T13:20:42.927Z,95308.22
2018-12-12T13:23:11.284Z,95311.08
2018-12-12T13:25:39.524Z,95308.95
2018-12-12T13:28:07.822Z,95300.53
2018-12-12T13:30:36.069Z,95308.45
2018-12-12T13:33:04.432Z,95301.66
2018-12-12T13:35:32.767Z,95305.91
2018-12-12T13:38:01.067Z,95302.94
2018-12-12T13:40:29.351Z,95292.94
2018-12-12T13:42:57.688Z,95290.44
2018-12-12T13:45:25.980Z,95272.91
2018-12-12T13:47:54.264Z,95280.73
2018-12-12T13:50:22.523Z,95280.80
2018-12-12T13:52:50.785Z,95273.64
2018-12-12T13:55:19.042Z,95269.84
2018-12-12T13:57:47.315Z,95273.86
2018-12-12T14:00:15.647Z,95274.09
2018-12-12T14:02:43.926Z,95274.66
2018-12-12T14:05:12.227Z,95280.61
2018-12-12T14:07:40.481Z,95280.45
2018-12-12T14:10:08.828Z,95271.83
2018-12-12T14:12:37.100Z,95275.64
2018-12-12T14:15:06.029Z,95271.91
2018-12-12T14:17:34.328Z,95265.79
2018-12-12T14:20:02.583Z,95262.93
2018-12-12T14:22:30.852Z,95273.41
2018-12-12T14:24:59.146Z,95272.70
2018-12-12T14:27:27.460Z,95264.42
2018-12-12T14:29:55.996Z,95281.41
2018-12-12T14:32:24.239Z,95271.43
2018-12-12T14:34:52.492Z,95270.44
2018-12-12T14:37:20.780Z,95272.84
2018-12-12T14:39:49.152Z,95260.58
2018-12-12T14:42:17.446Z,95265.44
2018-12-12T14:44:45.726Z,95257.92
2018-12-12T14:47:13.975Z,95266.78
2018-12-12T14:52:20.500Z,95274.52
2018-12-12T14:54:48.783Z,95278.68
2018-12-12T14:57:17.145Z,95263.45
2018-12-12T14:59:45.393Z,95258.97
2018-12-12T15:02:13.696Z,95268.87
2018-12-12T15:04:42.256Z,95274.33
2018-12-12T15:07:10.528Z,95273.65
2018-12-12T15:09:38.796Z,95264.64
2018-12-12T15:12:07.132Z,95263.73
2018-12-12T15:14:35.386Z,95261.19
2018-12-12T15:17:03.675Z,95258.66
2018-12-12T15:19:32.213Z,95260.45
2018-12-12T15:22:00.469Z,95261.41
2018-12-12T15:24:28.896Z,95257.23
2018-12-12T15:26:57.196Z,95258.31
2018-12-12T15:29:25.453Z,95254.70
2018-12-12T15:31:53.805Z,95255.02
2018-12-12T15:34:22.128Z,95263.16
2018-12-12T15:36:50.453Z,95254.98
2018-12-12T15:39:18.749Z,95249.14
2018-12-12T15:41:47.004Z,95248.72
2018-12-12T15:44:15.308Z,95252.02
2018-12-12T15:49:21.923Z,95248.60
2018-12-12T15:51:50.299Z,95252.04
2018-12-12T15:54:18.551Z,95252.69
2018-12-12T15:56:46.906Z,95248.38
2018-12-12T15:59:15.162Z,95248.48
2018-12-12T16:01:43.452Z,95248.83
2018-12-12T16:04:11.774Z,95241.22
2018-12-12T16:06:40.059Z,95247.95
2018-12-12T16:09:08.418Z,95244.34
2018-12-12T16:11:36.776Z,95244.91
2018-12-12T16:14:05.036Z,95233.25
2018-12-12T16:16:33.331Z,95234.39
2018-12-12T16:19:01.609Z,95239.06
2018-12-12T16:21:29.900Z,95244.55
2018-12-12T16:23:58.165Z,95233.25
2018-12-12T16:26:26.601Z,95230.42
2018-12-12T16:28:54.929Z,95243.83
2018-12-12T16:31:23.224Z,95249.16
2018-12-12T16:33:51.491Z,95255.39
2018-12-12T16:36:19.792Z,95259.13
2018-12-12T16:41:26.245Z,95257.22
2018-12-12T16:43:54.508Z,95254.66
2018-12-12T16:46:22.830Z,95262.36
2018-12-12T16:48:51.159Z,95259.80
2018-12-12T16:51:19.423Z,95259.41
2018-12-12T16:53:48.110Z,95262.35
2018-12-12T16:56:16.396Z,95267.47
2018-12-12T16:58:44.962Z,95267.84
2018-12-12T17:01:13.239Z,95259.96
2018-12-12T17:03:41.522Z,95247.84
2018-12-12T17:06:09.815Z,95264.55
2018-12-12T17:08:38.079Z,95260.97
2018-12-12T17:11:06.386Z,95253.18
2018-12-12T17:13:34.643Z,95264.94
2018-12-12T17:16:02.971Z,95255.21
2018-12-12T17:18:31.527Z,95254.84
2018-12-12T17:20:59.780Z,95260.53
2018-12-12T17:23:28.046Z,95258.98
2018-12-12T17:25:56.343Z,95255.58
2018-12-12T17:28:24.598Z,95248.95
2018-12-12T17:30:52.946Z,95247.30
2018-12-12T17:33:21.209Z,95244.72
2018-12-12T17:35:49.462Z,95248.59
2018-12-12T17:38:17.854Z,95246.20
2018-12-12T17:40:46.145Z,95251.52
2018-12-12T17:43:14.399Z,95243.73
2018-12-12T17:45:43.015Z,95248.02
2018-12-12T17:48:11.312Z,95245.83
2018-12-12T17:50:39.617Z,95245.64
2018-12-12T17:53:07.933Z,95239.93
2018-12-12T17:55:36.212Z,95232.77
2018-12-12T17:58:04.518Z,95241.16
2018-12-12T18:00:33.120Z,95240.78
2018-12-12T18:03:01.388Z,95234.17
2018-12-12T18:05:29.656Z,95238.19
2018-12-12T18:07:57.999Z,95240.49
2018-12-12T18:10:26.300Z,95239.36
2018-12-12T18:12:54.639Z,95244.02
2018-12-12T18:15:22.940Z,95238.53
2018-12-12T18:17:51.203Z,95228.12
2018-12-12T18:20:19.535Z,95236.86
2018-12-12T18:22:47.920Z,95246.14
2018-12-12T18:25:16.764Z,95229.41
2018-12-12T18:27:45.037Z,95232.50
2018-12-12T18:30:13.388Z,95234.81
2018-12-12T18:32:41.692Z,95230.11
2018-12-12T18:35:09.982Z,95220.01
2018-12-12T18:37:38.385Z,95227.81
2018-12-12T18:42:45.618Z,95224.50
2018-12-12T18:45:13.898Z,95219.75
2018-12-12T18:47:42.155Z,95220.09
2018-12-12T18:50:10.460Z,95220.14
2018-12-12T18:52:38.711Z,95216.86
2018-12-12T18:55:07.073Z,95223.05
2018-12-12T18:57:36.348Z,95219.30
2018-12-12T19:00:05.675Z,95224.00
2018-12-12T19:02:34.031Z,95213.70
2018-12-12T19:05:02.424Z,95221.31
2018-12-12T19:07:30.769Z,95213.72
2018-12-12T19:09:59.075Z,95211.70
2018-12-12T19:15:08.015Z,95211.70
2018-12-12T19:17:36.332Z,95200.70
2018-12-12T19:20:06.893Z,95201.28
2018-12-12T19:22:35.211Z,95207.04
2018-12-12T19:25:04.093Z,95205.19
2018-12-12T19:27:32.360Z,95200.98
2018-12-12T19:30:00.667Z,95201.98
2018-12-12T19:32:28.976Z,95203.40
2018-12-12T19:34:57.275Z,95199.68
2018-12-12T19:37:26.352Z,95200.58
2018-12-12T19:39:54.663Z,95195.41
2018-12-12T19:42:23.237Z,95196.70
2018-12-12T19:44:51.503Z,95193.55
2018-12-12T19:47:19.789Z,95192.97
2018-12-12T19:49:48.092Z,95191.94
2018-12-12T19:52:16.448Z,95192.57
2018-12-12T19:54:44.763Z,95194.00
2018-12-12T19:57:13.024Z,95187.84
2018-12-12T19:59:41.284Z,95183.73
2018-12-12T20:02:09.587Z,95182.27
2018-12-12T20:04:37.921Z,95184.91
2018-12-12T20:07:06.276Z,95184.96
2018-12-12T20:09:34.558Z,95187.16
2018-12-12T20:12:02.861Z,95191.86
2018-12-12T20:14:31.129Z,95181.38
2018-12-12T20:16:59.437Z,95180.47
2018-12-12T20:19:27.787Z,95180.52
2018-12-12T20:21:56.092Z,95178.28
2018-12-12T20:24:24.453Z,95176.60
2018-12-12T20:26:52.742Z,95179.34
2018-12-12T20:29:21.088Z,95175.03
2018-12-12T20:31:49.344Z,95178.64
2018-12-12T20:34:17.635Z,95174.23
2018-12-12T20:36:46.040Z,95168.92
2018-12-12T20:39:14.295Z,95172.05
2018-12-12T20:44:20.811Z,95161.70
2018-12-12T20:46:49.111Z,95161.30
2018-12-12T20:49:17.419Z,95157.22
2018-12-12T20:51:45.720Z,95161.77
2018-12-12T20:54:13.987Z,95162.16
2018-12-12T20:56:42.291Z,95156.77
2018-12-12T20:59:10.588Z,95157.03
2018-12-12T21:01:38.876Z,95154.03
2018-12-12T21:04:07.132Z,95150.98
2018-12-12T21:06:36.725Z,95153.19
2018-12-12T21:09:06.632Z,95146.75
2018-12-12T21:11:34.887Z,95145.00
2018-12-12T21:14:04.493Z,95143.25
2018-12-12T21:16:32.756Z,95138.09
2018-12-12T21:19:01.060Z,95143.25
2018-12-12T21:21:29.371Z,95139.96
2018-12-12T21:23:57.725Z,95140.22
2018-12-12T21:26:26.372Z,95132.48
2018-12-12T21:28:54.646Z,95134.48
2018-12-12T21:31:22.903Z,95130.25
2018-12-12T21:33:51.208Z,95136.34
2018-12-12T21:36:19.475Z,95134.94
2018-12-12T21:38:47.781Z,95129.33
2018-12-12T21:41:16.085Z,95123.09
2018-12-12T21:46:22.566Z,95122.77
2018-12-12T21:48:50.844Z,95127.16
2018-12-12T21:51:19.162Z,95117.14
2018-12-12T21:53:47.414Z,95115.65
2018-12-12T21:56:15.695Z,95111.37
2018-12-12T21:58:43.970Z,95107.13
2018-12-12T22:01:12.272Z,95117.19
2018-12-12T22:03:40.557Z,95101.02
2018-12-12T22:06:08.841Z,95110.36
2018-12-12T22:08:37.098Z,95100.13
2018-12-12T22:11:05.443Z,95098.97
2018-12-12T22:13:33.716Z,95100.23
2018-12-12T22:16:02.000Z,95102.13
2018-12-12T22:18:30.271Z,95096.89
2018-12-12T22:20:58.570Z,95100.76
2018-12-12T22:23:26.884Z,95099.19
2018-12-12T22:25:55.187Z,95098.06
2018-12-12T22:28:23.455Z,95094.41
2018-12-12T22:30:51.715Z,95085.36
2018-12-12T22:33:19.989Z,95089.27
2018-12-12T22:35:48.465Z,95091.58
2018-12-12T22:38:16.809Z,95089.34
2018-12-12T22:40:45.063Z,95086.48
2018-12-12T22:43:13.364Z,95094.42
2018-12-12T22:45:41.665Z,95089.36
2018-12-12T22:48:10.140Z,95090.28
2018-12-12T22:50:38.446Z,95090.95
2018-12-12T22:53:06.741Z,95086.75
2018-12-12T22:55:35.028Z,95082.17
2018-12-12T22:58:03.554Z,95079.05
2018-12-12T23:00:35.820Z,95081.93
2018-12-12T23:03:04.671Z,95077.23
2018-12-12T23:05:32.927Z,95076.16
2018-12-12T23:08:01.478Z,95075.56
2018-12-12T23:10:29.769Z,95072.49
2018-12-12T23:12:58.040Z,95068.50
2018-12-12T23:15:26.313Z,95065.92
2018-12-12T23:17:54.595Z,95063.43
2018-12-12T23:20:22.855Z,95061.94
2018-12-12T23:22:51.136Z,95058.31
2018-12-12T23:25:19.673Z,95057.31
2018-12-12T23:27:47.939Z,95055.90
2018-12-12T23:30:16.235Z,95060.02
2018-12-12T23:32:44.535Z,95053.78
2018-12-12T23:35:12.825Z,95045.30
2018-12-12T23:37:41.115Z,95040.81
2018-12-12T23:40:09.436Z,95042.39
2018-12-12T23:42:37.734Z,95040.64
2018-12-12T23:45:06.222Z,95033.48
2018-12-12T23:47:34.515Z,95023.72
2018-12-12T23:50:02.846Z,95025.26
2018-12-12T23:52:31.126Z,95032.81
2018-12-12T23:54:59.412Z,95028.37
